Ana Sayfa
METAR-TAF:

METAR-TAF

Havaalanları :

Dawson Creek, İngiliz Kolombiyası, Kanada

Enlem: 55-45N, Boylam: 120-11W, yükseklik: 655 m

Güncel hava durumu gözlemi

Rapor saat 07:00 UTC de 11 dakika önce yapıldı.
Rüzgar batı/kuzeybatıdan 7 kt
Sıcaklık 12°C
Nem 67%
Basınç 1018 hPa
Görüş mesafesi: 14.5 km
8500 ft yükseklikte çok bulutlu

METAR: CYDQ 230700Z AUTO 30007KT 9SM OVC085 12/06 A3007 RMK SLP192

Saat: 00:11 (07:11 UTC)

Tahmin

Rapor saat 00:38 UTC de 6 saat ve 33 dakika önce yapıldı.
Ayın 23'si saat 01 UTC'den ayın 23'si saat 05 UTC'ye kadar geçerli Tahmin
Rüzgar doğu/kuzeydoğudan 10 kt
Görüş mesafesi: 10 km
8000 ft yükseklikte parçalı çok bulutlu
Geçici
ayın 23'si saat 01 UTC'den ayın 23'si saat 05 UTC'ye kadar
Görüş mesafesi: 10 km
8000 ft yükseklikte çok bulutlu
hafif sağanak yağmurlar

TAF: CYDQ 230038Z 2301/2305 07010KT P6SM BKN080 TEMPO 2301/2305 P6SM -SHRA OVC080 RMK FCST BASED ON AUTO OBS. NXT FCST WILL BE ISSUED AT 231245Z

4.000'den fazla havaalanı için hava durumu gözlemleri ve tahminleri (METAR ve TAF raporları).

Kullanılabilir istasyonlar harita üzerinde sarı ve kırmızı noktalarla gösterilir.

İstasyonun adını görmek için fareyi noktanın üzerinde gezdirin.

Sonrasında hava gözlem ve tahminlerini görmek için tıklayın.

Haritayı değiştirmek için: yaklaştırmak için siyah artı işaretli yeşil düğmeye ve uzaklaştırmak için de eksi işaretli düğmeye hızla tıklayın; bitişik haritalar için yeşil okları kullanın.


METAR-TAF: